Aeroporto :
LOGIN :

Iscrizione | Disclaimer

   EN    FR    IT 

 










Sommario :    VFR   VFR Marginale   IFR   IFR Intensivo   IFR Molto Intensivo
Visibilità : 
Base nubi : 
>= 8 km
>= 3000ft
5 / 8 km
1000 / 3000 ft
1500m / 5 km
500 / 1000 ft
800 / 1500m
200 / 500 ft
< 800m
< 200 ft
Simboli :   Temporali  Nebbia  Neve Forte  Precipitazioni Forti  Vento > 20 kt
SIGMETs :   Varie  Temporali  Ghiacco  Turbolenza  Onda orograficha  Ceneri Vulcaniche






- Altitudine del aeroporto : 123 ft
- Codice IATA : BLQ


LIPE - Bologna Guglielmo Marconi

ULTIMO METAR :
  • 010150Z AUTO 26003KT 9999 NCD M01/M04 Q1023

METARs OBSOLETI :
  • 010120Z AUTO 26004KT 9999 NCD 00/M04 Q1023
  • 010050Z AUTO VRB01KT 9999 NCD 01/M05 Q1023
  • 010020Z AUTO VRB01KT 9999 NCD 01/M03 Q1023
  • 312350Z AUTO VRB01KT 9999 NCD 01/M04 Q1023
  • 312320Z AUTO 22003KT 9999 FEW100/// 01/M03 Q1023

TAF TAF LIPE
Valido dal 01 a 00 ore il 02 a 00 ore UTC


312300Z 0100/0124 10008KT 9999 SCT050



MetMap, La meteo Aeronautica in un colpo d'occhio ! - Copyright ORBIFLY Dicembre 2007 - Disclaimer

ORBIFLY MET'MAP TEAM :

Programmazione e sviluppo : Alexandra Zaïnal
Concezione : Baudouin d'Aumeries
Aiuto per la programmazione : Marc-Olivier Méhu
Supporto tecnico e logistico : Manuel Goepfert
Aiuto per la traduzione : Arnaldo La Scala

Contatto : metmap@orbifly.com




FONTI E CREDITI :

   NOAA